sensor_id;sensor_type;location;lat;lon;timestamp;pressure;altitude;pressure_sealevel;temperature;humidity
65546;BME280;52177;55.968;37.498;2024-03-06T00:00:13;100894.00;;;-6.18;66.88
65546;BME280;52177;55.968;37.498;2024-03-06T00:00:43;100890.53;;;-6.17;66.94
65546;BME280;52177;55.968;37.498;2024-03-06T00:01:14;100886.22;;;-6.18;67.04
65546;BME280;52177;55.968;37.498;2024-03-06T00:01:44;100891.41;;;-6.18;67.14
65546;BME280;52177;55.968;37.498;2024-03-06T00:02:15;100881.88;;;-6.17;67.08
65546;BME280;52177;55.968;37.498;2024-03-06T00:02:45;100881.03;;;-6.18;66.80
65546;BME280;52177;55.968;37.498;2024-03-06T00:03:15;100887.16;;;-6.20;66.39
65546;BME280;52177;55.968;37.498;2024-03-06T00:03:46;100890.63;;;-6.21;66.74
65546;BME280;52177;55.968;37.498;2024-03-06T00:04:16;100884.56;;;-6.20;67.07
65546;BME280;52177;55.968;37.498;2024-03-06T00:04:50;100887.16;;;-6.20;67.20
65546;BME280;52177;55.968;37.498;2024-03-06T00:05:20;100883.66;;;-6.19;67.25
65546;BME280;52177;55.968;37.498;2024-03-06T00:05:51;100886.25;;;-6.19;67.22
65546;BME280;52177;55.968;37.498;2024-03-06T00:06:21;100873.31;;;-6.21;67.10
65546;BME280;52177;55.968;37.498;2024-03-06T00:06:54;100884.56;;;-6.20;67.18
65546;BME280;52177;55.968;37.498;2024-03-06T00:07:25;100890.59;;;-6.20;66.93
65546;BME280;52177;55.968;37.498;2024-03-06T00:07:56;100881.97;;;-6.20;66.94
65546;BME280;52177;55.968;37.498;2024-03-06T00:08:27;100888.88;;;-6.21;66.91
65546;BME280;52177;55.968;37.498;2024-03-06T00:08:58;100883.75;;;-6.22;66.76
65546;BME280;52177;55.968;37.498;2024-03-06T00:09:29;100886.34;;;-6.22;66.70
65546;BME280;52177;55.968;37.498;2024-03-06T00:09:59;100882.09;;;-6.25;66.72
65546;BME280;52177;55.968;37.498;2024-03-06T00:10:30;100882.09;;;-6.25;66.86
65546;BME280;52177;55.968;37.498;2024-03-06T00:11:00;100878.63;;;-6.25;66.98
65546;BME280;52177;55.968;37.498;2024-03-06T00:11:30;100884.69;;;-6.25;67.23
65546;BME280;52177;55.968;37.498;2024-03-06T00:12:01;100885.53;;;-6.24;67.13
65546;BME280;52177;55.968;37.498;2024-03-06T00:12:31;100886.41;;;-6.25;67.05
65546;BME280;52177;55.968;37.498;2024-03-06T00:13:02;100885.63;;;-6.27;67.05
65546;BME280;52177;55.968;37.498;2024-03-06T00:13:32;100888.28;;;-6.30;66.82
65546;BME280;52177;55.968;37.498;2024-03-06T00:14:03;100885.78;;;-6.33;66.96
65546;BME280;52177;55.968;37.498;2024-03-06T00:14:35;100886.66;;;-6.34;67.04
65546;BME280;52177;55.968;37.498;2024-03-06T00:15:06;100878.97;;;-6.38;66.89
65546;BME280;52177;55.968;37.498;2024-03-06T00:15:37;100893.66;;;-6.37;67.07
65546;BME280;52177;55.968;37.498;2024-03-06T00:16:10;100880.75;;;-6.40;67.20
65546;BME280;52177;55.968;37.498;2024-03-06T00:16:42;100885.09;;;-6.40;66.78
65546;BME280;52177;55.968;37.498;2024-03-06T00:17:15;100891.19;;;-6.41;66.71
65546;BME280;52177;55.968;37.498;2024-03-06T00:17:46;100888.59;;;-6.43;66.84
65546;BME280;52177;55.968;37.498;2024-03-06T00:18:17;100886.91;;;-6.44;66.97
65546;BME280;52177;55.968;37.498;2024-03-06T00:18:47;100889.53;;;-6.45;66.73
65546;BME280;52177;55.968;37.498;2024-03-06T00:19:18;100894.75;;;-6.47;66.82
65546;BME280;52177;55.968;37.498;2024-03-06T00:19:49;100891.28;;;-6.46;67.08
65546;BME280;52177;55.968;37.498;2024-03-06T00:20:19;100890.38;;;-6.45;66.97
65546;BME280;52177;55.968;37.498;2024-03-06T00:20:49;100893.88;;;-6.46;66.96
65546;BME280;52177;55.968;37.498;2024-03-06T00:21:20;100896.47;;;-6.46;66.82
65546;BME280;52177;55.968;37.498;2024-03-06T00:21:50;100896.47;;;-6.46;66.82
65546;BME280;52177;55.968;37.498;2024-03-06T00:22:21;100891.28;;;-6.46;67.00
65546;BME280;52177;55.968;37.498;2024-03-06T00:22:51;100889.56;;;-6.47;67.08
65546;BME280;52177;55.968;37.498;2024-03-06T00:23:21;100894.75;;;-6.47;66.97
65546;BME280;52177;55.968;37.498;2024-03-06T00:23:52;100891.31;;;-6.47;66.89
65546;BME280;52177;55.968;37.498;2024-03-06T00:24:22;100891.34;;;-6.49;66.89
65546;BME280;52177;55.968;37.498;2024-03-06T00:24:56;100893.09;;;-6.49;67.02
65546;BME280;52177;55.968;37.498;2024-03-06T00:25:26;100889.66;;;-6.50;67.19
65546;BME280;52177;55.968;37.498;2024-03-06T00:25:57;100891.41;;;-6.50;67.25
65546;BME280;52177;55.968;37.498;2024-03-06T00:26:27;100892.25;;;-6.50;67.36
65546;BME280;52177;55.968;37.498;2024-03-06T00:26:57;100896.53;;;-6.49;67.35
65546;BME280;52177;55.968;37.498;2024-03-06T00:27:28;100891.41;;;-6.50;67.23
65546;BME280;52177;55.968;37.498;2024-03-06T00:27:58;100890.53;;;-6.51;67.37
65546;BME280;52177;55.968;37.498;2024-03-06T00:28:34;100889.69;;;-6.51;67.28
65546;BME280;52177;55.968;37.498;2024-03-06T00:29:13;100894.03;;;-6.52;67.36
65546;BME280;52177;55.968;37.498;2024-03-06T00:29:44;100887.16;;;-6.53;67.49
65546;BME280;52177;55.968;37.498;2024-03-06T00:30:18;100886.28;;;-6.53;67.35
65546;BME280;52177;55.968;37.498;2024-03-06T00:30:48;100888.94;;;-6.55;67.38
65546;BME280;52177;55.968;37.498;2024-03-06T00:31:19;100888.94;;;-6.55;67.45
65546;BME280;52177;55.968;37.498;2024-03-06T00:31:49;100895.00;;;-6.56;67.38
65546;BME280;52177;55.968;37.498;2024-03-06T00:32:20;100886.41;;;-6.58;67.34
65546;BME280;52177;55.968;37.498;2024-03-06T00:32:50;100887.28;;;-6.57;67.35
65546;BME280;52177;55.968;37.498;2024-03-06T00:33:21;100888.97;;;-6.58;67.36
65546;BME280;52177;55.968;37.498;2024-03-06T00:33:51;100884.69;;;-6.57;67.27
65546;BME280;52177;55.968;37.498;2024-03-06T00:34:22;100888.97;;;-6.56;67.21
65546;BME280;52177;55.968;37.498;2024-03-06T00:34:52;100890.72;;;-6.57;67.04
65546;BME280;52177;55.968;37.498;2024-03-06T00:35:23;100887.28;;;-6.57;66.99
65546;BME280;52177;55.968;37.498;2024-03-06T00:35:53;100883.78;;;-6.58;66.90
65546;BME280;52177;55.968;37.498;2024-03-06T00:36:23;100882.13;;;-6.61;67.01
65546;BME280;52177;55.968;37.498;2024-03-06T00:36:54;100880.44;;;-6.62;66.98
65546;BME280;52177;55.968;37.498;2024-03-06T00:37:25;100884.78;;;-6.62;67.09
65546;BME280;52177;55.968;37.498;2024-03-06T00:37:55;100878.72;;;-6.63;67.10
65546;BME280;52177;55.968;37.498;2024-03-06T00:38:26;100877.00;;;-6.62;67.17
65546;BME280;52177;55.968;37.498;2024-03-06T00:38:56;100882.22;;;-6.64;67.18
65546;BME280;52177;55.968;37.498;2024-03-06T00:39:26;100877.94;;;-6.65;66.95
65546;BME280;52177;55.968;37.498;2024-03-06T00:39:57;100884.00;;;-6.66;67.09
65546;BME280;52177;55.968;37.498;2024-03-06T00:40:28;100884.00;;;-6.66;67.11
65546;BME280;52177;55.968;37.498;2024-03-06T00:41:00;100880.56;;;-6.66;67.10
65546;BME280;52177;55.968;37.498;2024-03-06T00:41:31;100880.56;;;-6.66;67.06
65546;BME280;52177;55.968;37.498;2024-03-06T00:42:02;100884.09;;;-6.69;67.08
65546;BME280;52177;55.968;37.498;2024-03-06T00:42:33;100877.19;;;-6.70;66.88
65546;BME280;52177;55.968;37.498;2024-03-06T00:43:03;100879.84;;;-6.71;67.07
65546;BME280;52177;55.968;37.498;2024-03-06T00:43:34;100879.84;;;-6.71;67.13
65546;BME280;52177;55.968;37.498;2024-03-06T00:44:04;100879.00;;;-6.72;67.21
65546;BME280;52177;55.968;37.498;2024-03-06T00:44:38;100872.06;;;-6.73;67.19
65546;BME280;52177;55.968;37.498;2024-03-06T00:45:09;100879.88;;;-6.74;67.18
65546;BME280;52177;55.968;37.498;2024-03-06T00:45:39;100877.25;;;-6.73;67.20
65546;BME280;52177;55.968;37.498;2024-03-06T00:46:10;100876.41;;;-6.73;67.20
65546;BME280;52177;55.968;37.498;2024-03-06T00:46:44;100880.69;;;-6.72;67.30
65546;BME280;52177;55.968;37.498;2024-03-06T00:47:14;100880.75;;;-6.74;67.27
65546;BME280;52177;55.968;37.498;2024-03-06T00:47:44;100880.78;;;-6.75;67.31
65546;BME280;52177;55.968;37.498;2024-03-06T00:48:15;100884.28;;;-6.76;67.33
65546;BME280;52177;55.968;37.498;2024-03-06T00:48:45;100883.47;;;-6.78;67.33
65546;BME280;52177;55.968;37.498;2024-03-06T00:49:16;100879.16;;;-6.80;67.54
65546;BME280;52177;55.968;37.498;2024-03-06T00:49:46;100883.50;;;-6.80;67.49
65546;BME280;52177;55.968;37.498;2024-03-06T00:50:17;100878.34;;;-6.82;67.41
65546;BME280;52177;55.968;37.498;2024-03-06T00:50:48;100881.84;;;-6.84;67.45
65546;BME280;52177;55.968;37.498;2024-03-06T00:51:19;100875.84;;;-6.86;67.35
65546;BME280;52177;55.968;37.498;2024-03-06T00:51:49;100887.97;;;-6.87;67.66
65546;BME280;52177;55.968;37.498;2024-03-06T00:52:19;100880.19;;;-6.87;67.72
65546;BME280;52177;55.968;37.498;2024-03-06T00:52:50;100883.69;;;-6.88;67.66
65546;BME280;52177;55.968;37.498;2024-03-06T00:53:20;100881.13;;;-6.89;67.66
65546;BME280;52177;55.968;37.498;2024-03-06T00:53:51;100878.56;;;-6.91;67.46
65546;BME280;52177;55.968;37.498;2024-03-06T00:54:21;100876.88;;;-6.92;67.63
65546;BME280;52177;55.968;37.498;2024-03-06T00:54:52;100872.59;;;-6.94;67.65
65546;BME280;52177;55.968;37.498;2024-03-06T00:55:22;100881.25;;;-6.95;67.76
65546;BME280;52177;55.968;37.498;2024-03-06T00:55:53;100878.66;;;-6.95;67.90
65546;BME280;52177;55.968;37.498;2024-03-06T00:56:23;100882.19;;;-6.98;67.58
65546;BME280;52177;55.968;37.498;2024-03-06T00:56:54;100875.31;;;-6.99;67.76
65546;BME280;52177;55.968;37.498;2024-03-06T00:57:24;100880.50;;;-6.99;67.85
65546;BME280;52177;55.968;37.498;2024-03-06T00:57:55;100877.00;;;-6.98;67.86
65546;BME280;52177;55.968;37.498;2024-03-06T00:58:27;100880.50;;;-6.99;67.87
65546;BME280;52177;55.968;37.498;2024-03-06T00:58:58;100874.47;;;-6.99;67.95
65546;BME280;52177;55.968;37.498;2024-03-06T00:59:28;100883.94;;;-7.00;67.66
65546;BME280;52177;55.968;37.498;2024-03-06T01:00:04;100877.91;;;-7.01;67.98
65546;BME280;52177;55.968;37.498;2024-03-06T01:00:43;100881.38;;;-7.00;68.06
65546;BME280;52177;55.968;37.498;2024-03-06T01:01:15;100876.19;;;-7.00;68.05
65546;BME280;52177;55.968;37.498;2024-03-06T01:01:46;100881.38;;;-7.00;68.11
65546;BME280;52177;55.968;37.498;2024-03-06T01:02:16;100880.50;;;-6.99;68.06
65546;BME280;52177;55.968;37.498;2024-03-06T01:02:47;100883.09;;;-6.99;68.12
65546;BME280;52177;55.968;37.498;2024-03-06T01:03:17;100883.09;;;-7.01;67.89
65546;BME280;52177;55.968;37.498;2024-03-06T01:03:48;100887.44;;;-7.01;67.77
65546;BME280;52177;55.968;37.498;2024-03-06T01:04:19;100876.22;;;-7.02;67.74
65546;BME280;52177;55.968;37.498;2024-03-06T01:04:49;100877.09;;;-7.03;67.63
65546;BME280;52177;55.968;37.498;2024-03-06T01:05:20;100881.44;;;-7.03;67.70
65546;BME280;52177;55.968;37.498;2024-03-06T01:05:50;100884.94;;;-7.04;67.95
65546;BME280;52177;55.968;37.498;2024-03-06T01:06:22;100880.59;;;-7.04;67.91
65546;BME280;52177;55.968;37.498;2024-03-06T01:06:53;100882.34;;;-7.04;67.68
65546;BME280;52177;55.968;37.498;2024-03-06T01:07:23;100884.94;;;-7.04;67.78
65546;BME280;52177;55.968;37.498;2024-03-06T01:07:53;100878.09;;;-7.07;67.84
65546;BME280;52177;55.968;37.498;2024-03-06T01:08:24;100881.53;;;-7.06;68.02
65546;BME280;52177;55.968;37.498;2024-03-06T01:08:56;100880.63;;;-7.05;67.96
65546;BME280;52177;55.968;37.498;2024-03-06T01:09:27;100882.44;;;-7.09;68.05
65546;BME280;52177;55.968;37.498;2024-03-06T01:09:57;100885.06;;;-7.10;68.05
65546;BME280;52177;55.968;37.498;2024-03-06T01:10:28;100872.19;;;-7.13;67.99
65546;BME280;52177;55.968;37.498;2024-03-06T01:10:58;100879.16;;;-7.15;67.99
65546;BME280;52177;55.968;37.498;2024-03-06T01:11:29;100883.53;;;-7.19;67.78
65546;BME280;52177;55.968;37.498;2024-03-06T01:11:59;100877.56;;;-7.21;68.02
65546;BME280;52177;55.968;37.498;2024-03-06T01:12:30;100889.63;;;-7.22;68.00
65546;BME280;52177;55.968;37.498;2024-03-06T01:13:00;100889.69;;;-7.23;67.91
65546;BME280;52177;55.968;37.498;2024-03-06T01:13:33;100885.44;;;-7.26;68.04
65546;BME280;52177;55.968;37.498;2024-03-06T01:14:04;100880.28;;;-7.27;68.02
65546;BME280;52177;55.968;37.498;2024-03-06T01:14:34;100889.81;;;-7.29;68.00
65546;BME280;52177;55.968;37.498;2024-03-06T01:15:05;100881.19;;;-7.30;68.04
65546;BME280;52177;55.968;37.498;2024-03-06T01:15:37;100891.56;;;-7.30;68.20
65546;BME280;52177;55.968;37.498;2024-03-06T01:16:07;100889.84;;;-7.31;68.03
65546;BME280;52177;55.968;37.498;2024-03-06T01:16:38;100879.47;;;-7.31;68.18
65546;BME280;52177;55.968;37.498;2024-03-06T01:17:08;100882.94;;;-7.30;68.30
65546;BME280;52177;55.968;37.498;2024-03-06T01:17:39;100888.13;;;-7.30;68.24
65546;BME280;52177;55.968;37.498;2024-03-06T01:18:09;100886.38;;;-7.30;68.32
65546;BME280;52177;55.968;37.498;2024-03-06T01:18:39;100883.78;;;-7.30;68.40
65546;BME280;52177;55.968;37.498;2024-03-06T01:19:10;100879.47;;;-7.29;68.31
65546;BME280;52177;55.968;37.498;2024-03-06T01:19:40;100882.88;;;-7.29;68.28
65546;BME280;52177;55.968;37.498;2024-03-06T01:20:13;100886.31;;;-7.28;68.33
65546;BME280;52177;55.968;37.498;2024-03-06T01:20:44;100886.28;;;-7.25;68.41
65546;BME280;52177;55.968;37.498;2024-03-06T01:21:14;100882.88;;;-7.27;68.26
65546;BME280;52177;55.968;37.498;2024-03-06T01:21:45;100882.03;;;-7.28;68.12
65546;BME280;52177;55.968;37.498;2024-03-06T01:22:15;100882.03;;;-7.28;68.05
65546;BME280;52177;55.968;37.498;2024-03-06T01:22:48;100882.03;;;-7.29;68.14
65546;BME280;52177;55.968;37.498;2024-03-06T01:23:19;100887.25;;;-7.31;68.21
65546;BME280;52177;55.968;37.498;2024-03-06T01:23:49;100884.72;;;-7.32;68.04
65546;BME280;52177;55.968;37.498;2024-03-06T01:24:19;100883.88;;;-7.34;67.69
65546;BME280;52177;55.968;37.498;2024-03-06T01:24:50;100884.81;;;-7.37;67.97
65546;BME280;52177;55.968;37.498;2024-03-06T01:25:21;100888.31;;;-7.39;68.11
65546;BME280;52177;55.968;37.498;2024-03-06T01:25:51;100883.16;;;-7.41;68.26
65546;BME280;52177;55.968;37.498;2024-03-06T01:26:22;100880.59;;;-7.41;68.32
65546;BME280;52177;55.968;37.498;2024-03-06T01:26:52;100884.00;;;-7.40;68.14
65546;BME280;52177;55.968;37.498;2024-03-06T01:27:23;100878.00;;;-7.41;68.26
65546;BME280;52177;55.968;37.498;2024-03-06T01:27:53;100880.59;;;-7.41;68.13
65546;BME280;52177;55.968;37.498;2024-03-06T01:28:24;100883.16;;;-7.41;68.19
65546;BME280;52177;55.968;37.498;2024-03-06T01:28:54;100880.59;;;-7.41;67.99
65546;BME280;52177;55.968;37.498;2024-03-06T01:29:25;100880.66;;;-7.44;67.68
65546;BME280;52177;55.968;37.498;2024-03-06T01:29:55;100872.91;;;-7.46;67.80
65546;BME280;52177;55.968;37.498;2024-03-06T01:30:25;100881.59;;;-7.48;67.84
65546;BME280;52177;55.968;37.498;2024-03-06T01:30:56;100881.59;;;-7.48;67.98
65546;BME280;52177;55.968;37.498;2024-03-06T01:31:41;100884.22;;;-7.50;68.08
65546;BME280;52177;55.968;37.498;2024-03-06T01:32:11;100878.16;;;-7.49;68.23
65546;BME280;52177;55.968;37.498;2024-03-06T01:32:41;100879.88;;;-7.49;68.00
65546;BME280;52177;55.968;37.498;2024-03-06T01:33:12;100878.19;;;-7.50;67.95
65546;BME280;52177;55.968;37.498;2024-03-06T01:33:42;100879.09;;;-7.53;67.72
65546;BME280;52177;55.968;37.498;2024-03-06T01:34:13;100886.06;;;-7.55;67.77
65546;BME280;52177;55.968;37.498;2024-03-06T01:34:43;100885.22;;;-7.57;67.84
65546;BME280;52177;55.968;37.498;2024-03-06T01:35:14;100887.03;;;-7.60;67.74
65546;BME280;52177;55.968;37.498;2024-03-06T01:35:44;100881.06;;;-7.64;67.75
65546;BME280;52177;55.968;37.498;2024-03-06T01:36:15;100881.16;;;-7.69;67.65
65546;BME280;52177;55.968;37.498;2024-03-06T01:36:45;100883.81;;;-7.72;67.69
65546;BME280;52177;55.968;37.498;2024-03-06T01:37:16;100888.16;;;-7.72;67.97
65546;BME280;52177;55.968;37.498;2024-03-06T01:37:46;100889.06;;;-7.75;68.08
65546;BME280;52177;55.968;37.498;2024-03-06T01:38:16;100891.69;;;-7.76;68.16
65546;BME280;52177;55.968;37.498;2024-03-06T01:38:47;100889.13;;;-7.78;68.24
65546;BME280;52177;55.968;37.498;2024-03-06T01:39:18;100890.00;;;-7.79;68.12
65546;BME280;52177;55.968;37.498;2024-03-06T01:39:48;100889.16;;;-7.79;68.20
65546;BME280;52177;55.968;37.498;2024-03-06T01:40:19;100892.63;;;-7.80;68.10
65546;BME280;52177;55.968;37.498;2024-03-06T01:40:49;100891.78;;;-7.81;68.03
65546;BME280;52177;55.968;37.498;2024-03-06T01:41:20;100892.63;;;-7.82;68.17
65546;BME280;52177;55.968;37.498;2024-03-06T01:41:51;100896.97;;;-7.82;68.13
65546;BME280;52177;55.968;37.498;2024-03-06T01:42:21;100894.44;;;-7.84;68.05
65546;BME280;52177;55.968;37.498;2024-03-06T01:42:51;100896.13;;;-7.83;68.15
65546;BME280;52177;55.968;37.498;2024-03-06T01:43:25;100891.84;;;-7.84;68.28
65546;BME280;52177;55.968;37.498;2024-03-06T01:43:56;100891.88;;;-7.86;68.28
65546;BME280;52177;55.968;37.498;2024-03-06T01:44:26;100890.19;;;-7.88;68.26
65546;BME280;52177;55.968;37.498;2024-03-06T01:44:57;100892.81;;;-7.90;68.24
65546;BME280;52177;55.968;37.498;2024-03-06T01:45:27;100889.38;;;-7.90;68.21
65546;BME280;52177;55.968;37.498;2024-03-06T01:45:58;100896.31;;;-7.92;68.06
65546;BME280;52177;55.968;37.498;2024-03-06T01:46:30;100896.31;;;-7.94;68.29
65546;BME280;52177;55.968;37.498;2024-03-06T01:47:01;100901.56;;;-7.95;68.28
65546;BME280;52177;55.968;37.498;2024-03-06T01:47:31;100900.72;;;-7.97;68.41
65546;BME280;52177;55.968;37.498;2024-03-06T01:48:02;100900.75;;;-7.99;68.11
65546;BME280;52177;55.968;37.498;2024-03-06T01:48:33;100904.22;;;-8.00;68.30
65546;BME280;52177;55.968;37.498;2024-03-06T01:49:04;100900.81;;;-8.02;68.46
65546;BME280;52177;55.968;37.498;2024-03-06T01:49:35;100896.56;;;-8.04;68.27
65546;BME280;52177;55.968;37.498;2024-03-06T01:50:06;100902.56;;;-8.04;68.44
65546;BME280;52177;55.968;37.498;2024-03-06T01:50:39;100898.31;;;-8.07;68.35
65546;BME280;52177;55.968;37.498;2024-03-06T01:51:11;100899.16;;;-8.06;68.48
65546;BME280;52177;55.968;37.498;2024-03-06T01:51:48;100896.63;;;-8.08;68.53
65546;BME280;52177;55.968;37.498;2024-03-06T01:52:21;100891.44;;;-8.08;68.81
65546;BME280;52177;55.968;37.498;2024-03-06T01:52:52;100892.28;;;-8.07;68.69
65546;BME280;52177;55.968;37.498;2024-03-06T01:53:22;100891.44;;;-8.08;68.79
65546;BME280;52177;55.968;37.498;2024-03-06T01:53:55;100896.63;;;-8.08;68.71
65546;BME280;52177;55.968;37.498;2024-03-06T01:54:26;100887.13;;;-8.07;68.65
65546;BME280;52177;55.968;37.498;2024-03-06T01:54:56;100892.25;;;-8.06;68.78
65546;BME280;52177;55.968;37.498;2024-03-06T01:55:27;100893.13;;;-8.07;69.00
65546;BME280;52177;55.968;37.498;2024-03-06T01:55:57;100893.97;;;-8.06;68.71
65546;BME280;52177;55.968;37.498;2024-03-06T01:56:28;100898.31;;;-8.07;68.79
65546;BME280;52177;55.968;37.498;2024-03-06T01:57:01;100900.06;;;-8.07;68.67
65546;BME280;52177;55.968;37.498;2024-03-06T01:57:33;100896.56;;;-8.06;68.74
65546;BME280;52177;55.968;37.498;2024-03-06T01:58:04;100896.56;;;-8.06;69.07
65546;BME280;52177;55.968;37.498;2024-03-06T01:58:36;100897.41;;;-8.04;69.00
65546;BME280;52177;55.968;37.498;2024-03-06T01:59:06;100893.97;;;-8.06;68.79
65546;BME280;52177;55.968;37.498;2024-03-06T01:59:37;100897.41;;;-8.04;68.76
65546;BME280;52177;55.968;37.498;2024-03-06T02:00:08;100900.84;;;-8.03;68.86
65546;BME280;52177;55.968;37.498;2024-03-06T02:00:43;100891.34;;;-8.03;68.89
65546;BME280;52177;55.968;37.498;2024-03-06T02:01:16;100899.13;;;-8.03;68.60
65546;BME280;52177;55.968;37.498;2024-03-06T02:01:46;100893.06;;;-8.03;68.79
65546;BME280;52177;55.968;37.498;2024-03-06T02:02:17;100893.94;;;-8.03;68.86
65546;BME280;52177;55.968;37.498;2024-03-06T02:02:50;100893.94;;;-8.03;68.79
65546;BME280;52177;55.968;37.498;2024-03-06T02:03:21;100896.53;;;-8.03;68.80
65546;BME280;52177;55.968;37.498;2024-03-06T02:03:52;100888.78;;;-8.04;68.96
65546;BME280;52177;55.968;37.498;2024-03-06T02:04:24;100895.72;;;-8.05;68.77
65546;BME280;52177;55.968;37.498;2024-03-06T02:04:58;100888.81;;;-8.06;68.83
65546;BME280;52177;55.968;37.498;2024-03-06T02:05:30;100894.91;;;-8.09;68.81
65546;BME280;52177;55.968;37.498;2024-03-06T02:06:02;100888.84;;;-8.08;68.86
65546;BME280;52177;55.968;37.498;2024-03-06T02:06:33;100897.41;;;-8.06;69.04
65546;BME280;52177;55.968;37.498;2024-03-06T02:07:08;100893.13;;;-8.07;69.07
65546;BME280;52177;55.968;37.498;2024-03-06T02:07:42;100890.56;;;-8.07;68.98
65546;BME280;52177;55.968;37.498;2024-03-06T02:08:15;100896.56;;;-8.06;69.15
65546;BME280;52177;55.968;37.498;2024-03-06T02:08:46;100895.72;;;-8.05;68.93
65546;BME280;52177;55.968;37.498;2024-03-06T02:09:16;100892.25;;;-8.06;68.53
65546;BME280;52177;55.968;37.498;2024-03-06T02:09:47;100900.88;;;-8.05;68.42
65546;BME280;52177;55.968;37.498;2024-03-06T02:10:19;100887.97;;;-8.08;68.44
65546;BME280;52177;55.968;37.498;2024-03-06T02:10:49;100887.16;;;-8.10;68.47
65546;BME280;52177;55.968;37.498;2024-03-06T02:11:20;100894.13;;;-8.12;68.31
65546;BME280;52177;55.968;37.498;2024-03-06T02:11:50;100895.00;;;-8.15;68.26
65546;BME280;52177;55.968;37.498;2024-03-06T02:12:21;100895.06;;;-8.16;68.42
65546;BME280;52177;55.968;37.498;2024-03-06T02:12:51;100892.53;;;-8.21;68.44
65546;BME280;52177;55.968;37.498;2024-03-06T02:13:23;100894.31;;;-8.23;68.32
65546;BME280;52177;55.968;37.498;2024-03-06T02:13:53;100890.88;;;-8.25;68.79
65546;BME280;52177;55.968;37.498;2024-03-06T02:14:24;100887.47;;;-8.25;68.81
65546;BME280;52177;55.968;37.498;2024-03-06T02:14:54;100892.63;;;-8.25;68.96
65546;BME280;52177;55.968;37.498;2024-03-06T02:15:24;100886.63;;;-8.26;68.64
65546;BME280;52177;55.968;37.498;2024-03-06T02:15:55;100888.31;;;-8.25;68.89
65546;BME280;52177;55.968;37.498;2024-03-06T02:16:26;100890.03;;;-8.24;69.09
65546;BME280;52177;55.968;37.498;2024-03-06T02:16:57;100885.69;;;-8.23;68.97
65546;BME280;52177;55.968;37.498;2024-03-06T02:17:27;100883.97;;;-8.23;69.08
65546;BME280;52177;55.968;37.498;2024-03-06T02:18:04;100879.63;;;-8.22;68.75
65546;BME280;52177;55.968;37.498;2024-03-06T02:18:35;100888.22;;;-8.20;68.94
65546;BME280;52177;55.968;37.498;2024-03-06T02:19:08;100884.78;;;-8.21;68.86
65546;BME280;52177;55.968;37.498;2024-03-06T02:19:42;100883.06;;;-8.22;68.68
65546;BME280;52177;55.968;37.498;2024-03-06T02:20:13;100890.88;;;-8.23;68.47
65546;BME280;52177;55.968;37.498;2024-03-06T02:20:46;100883.97;;;-8.24;68.69
65546;BME280;52177;55.968;37.498;2024-03-06T02:21:17;100886.63;;;-8.26;68.61
65546;BME280;52177;55.968;37.498;2024-03-06T02:21:47;100890.06;;;-8.27;68.46
65546;BME280;52177;55.968;37.498;2024-03-06T02:22:18;100888.38;;;-8.28;68.64
65546;BME280;52177;55.968;37.498;2024-03-06T02:22:48;100890.97;;;-8.30;68.61
65546;BME280;52177;55.968;37.498;2024-03-06T02:23:18;100881.56;;;-8.34;68.42
65546;BME280;52177;55.968;37.498;2024-03-06T02:23:51;100885.88;;;-8.33;68.49
65546;BME280;52177;55.968;37.498;2024-03-06T02:24:22;100885.88;;;-8.34;68.52
65546;BME280;52177;55.968;37.498;2024-03-06T02:24:52;100892.78;;;-8.35;68.57
65546;BME280;52177;55.968;37.498;2024-03-06T02:25:23;100891.94;;;-8.35;68.50
65546;BME280;52177;55.968;37.498;2024-03-06T02:25:53;100894.56;;;-8.37;68.51
65546;BME280;52177;55.968;37.498;2024-03-06T02:26:24;100891.13;;;-8.37;68.65
65546;BME280;52177;55.968;37.498;2024-03-06T02:26:56;100884.22;;;-8.37;68.54
65546;BME280;52177;55.968;37.498;2024-03-06T02:27:26;100894.56;;;-8.37;68.38
65546;BME280;52177;55.968;37.498;2024-03-06T02:27:56;100892.84;;;-8.38;68.49
65546;BME280;52177;55.968;37.498;2024-03-06T02:28:27;100890.28;;;-8.38;68.69
65546;BME280;52177;55.968;37.498;2024-03-06T02:28:57;100898.06;;;-8.39;68.61
65546;BME280;52177;55.968;37.498;2024-03-06T02:29:28;100900.63;;;-8.39;68.62
65546;BME280;52177;55.968;37.498;2024-03-06T02:29:58;100898.91;;;-8.39;68.77
65546;BME280;52177;55.968;37.498;2024-03-06T02:30:29;100901.56;;;-8.40;68.62
65546;BME280;52177;55.968;37.498;2024-03-06T02:31:05;100894.66;;;-8.40;68.88
65546;BME280;52177;55.968;37.498;2024-03-06T02:31:37;100898.91;;;-8.39;68.70
65546;BME280;52177;55.968;37.498;2024-03-06T02:32:09;100902.31;;;-8.38;68.71
65546;BME280;52177;55.968;37.498;2024-03-06T02:32:42;100900.63;;;-8.39;68.66
65546;BME280;52177;55.968;37.498;2024-03-06T02:33:13;100901.47;;;-8.39;68.72
65546;BME280;52177;55.968;37.498;2024-03-06T02:33:45;100905.00;;;-8.40;68.58
65546;BME280;52177;55.968;37.498;2024-03-06T02:34:17;100895.47;;;-8.39;68.81
65546;BME280;52177;55.968;37.498;2024-03-06T02:34:47;100899.75;;;-8.38;68.87
65546;BME280;52177;55.968;37.498;2024-03-06T02:35:18;100900.56;;;-8.36;68.98
65546;BME280;52177;55.968;37.498;2024-03-06T02:35:49;100902.28;;;-8.35;68.83
65546;BME280;52177;55.968;37.498;2024-03-06T02:36:19;100904.84;;;-8.34;69.02
65546;BME280;52177;55.968;37.498;2024-03-06T02:36:53;100906.50;;;-8.31;69.00
65546;BME280;52177;55.968;37.498;2024-03-06T02:37:24;100905.63;;;-8.29;68.90
65546;BME280;52177;55.968;37.498;2024-03-06T02:37:54;100910.81;;;-8.29;68.92
65546;BME280;52177;55.968;37.498;2024-03-06T02:38:27;100904.75;;;-8.29;68.80
65546;BME280;52177;55.968;37.498;2024-03-06T02:38:57;100908.22;;;-8.29;68.83
65546;BME280;52177;55.968;37.498;2024-03-06T02:39:27;100913.38;;;-8.29;68.75
65546;BME280;52177;55.968;37.498;2024-03-06T02:39:58;100913.38;;;-8.29;68.72
65546;BME280;52177;55.968;37.498;2024-03-06T02:40:30;100912.50;;;-8.29;68.76